createdAt,value
2023-01-07T00:00:43.420Z,8.71
2023-01-07T00:05:46.103Z,9.27
2023-01-07T00:10:48.177Z,9.29
2023-01-07T00:15:50.340Z,9.27
2023-01-07T00:20:52.932Z,9.40
2023-01-07T00:26:07.291Z,9.38
2023-01-07T00:31:16.847Z,9.34
2023-01-07T00:36:20.042Z,9.24
2023-01-07T00:41:22.610Z,9.28
2023-01-07T00:46:25.076Z,9.28
2023-01-07T00:51:27.274Z,9.00
2023-01-07T00:56:30.180Z,9.00
2023-01-07T01:01:32.381Z,9.03
2023-01-07T01:06:34.734Z,8.80
2023-01-07T01:11:36.907Z,8.88
2023-01-07T01:16:39.189Z,8.99
2023-01-07T01:21:41.763Z,8.79
2023-01-07T01:26:43.896Z,8.38
2023-01-07T01:31:46.140Z,8.42
2023-01-07T01:36:48.411Z,8.29
2023-01-07T01:41:50.827Z,7.88
2023-01-07T01:46:53.219Z,8.08
2023-01-07T01:52:17.156Z,8.07
2023-01-07T01:57:21.433Z,7.69
2023-01-07T02:02:32.903Z,7.50
2023-01-07T02:07:35.240Z,7.93
2023-01-07T02:12:52.525Z,7.84
2023-01-07T02:18:15.820Z,7.51
2023-01-07T02:23:27.869Z,7.46
2023-01-07T02:29:05.105Z,7.29
2023-01-07T02:34:25.476Z,7.84
2023-01-07T02:39:46.129Z,7.29
2023-01-07T02:44:59.962Z,7.16
2023-01-07T02:50:02.107Z,7.29
2023-01-07T02:55:16.092Z,7.67
2023-01-07T03:00:55.603Z,8.00
2023-01-07T03:06:14.495Z,8.05
2023-01-07T03:11:20.082Z,8.12
2023-01-07T03:16:34.519Z,8.11
2023-01-07T03:21:37.772Z,8.17
2023-01-07T03:26:46.724Z,8.23
2023-01-07T03:31:58.647Z,8.28
2023-01-07T03:37:08.366Z,8.37
2023-01-07T03:42:30.550Z,8.33
2023-01-07T03:47:32.939Z,7.93
2023-01-07T03:52:35.066Z,7.96
2023-01-07T03:57:37.908Z,7.96
2023-01-07T04:02:40.138Z,7.75
2023-01-07T04:07:42.496Z,7.98
2023-01-07T04:12:44.604Z,7.75
2023-01-07T04:17:46.883Z,7.91
2023-01-07T04:22:49.044Z,7.71
2023-01-07T04:27:51.217Z,7.84
2023-01-07T04:32:53.304Z,7.62
2023-01-07T04:37:55.431Z,7.78
2023-01-07T04:42:57.600Z,7.80
2023-01-07T04:47:59.793Z,7.72
2023-01-07T04:53:01.916Z,7.92
2023-01-07T04:58:04.056Z,7.54
2023-01-07T05:03:06.525Z,7.65
2023-01-07T05:08:08.689Z,7.65
2023-01-07T05:13:17.993Z,7.74
2023-01-07T05:18:20.338Z,7.69
2023-01-07T05:23:22.488Z,7.45
2023-01-07T05:28:24.644Z,7.38
2023-01-07T05:33:26.803Z,7.44
2023-01-07T05:38:29.180Z,7.08
2023-01-07T05:43:31.541Z,7.01
2023-01-07T05:48:33.753Z,7.29
2023-01-07T05:53:35.976Z,7.25
2023-01-07T05:58:38.172Z,7.26
2023-01-07T06:03:41.156Z,7.56
2023-01-07T06:08:43.326Z,7.41
2023-01-07T06:13:45.479Z,7.48
2023-01-07T06:18:47.617Z,7.21
2023-01-07T06:23:49.875Z,7.27
2023-01-07T06:28:52.823Z,6.80
2023-01-07T06:33:55.053Z,6.48
2023-01-07T06:38:57.244Z,6.68
2023-01-07T06:43:59.390Z,6.95
2023-01-07T06:49:01.628Z,6.12
2023-01-07T06:54:03.877Z,5.49
2023-01-07T06:59:06.013Z,6.47
2023-01-07T07:04:08.104Z,6.93
2023-01-07T07:09:10.171Z,7.00
2023-01-07T07:14:12.245Z,7.23
2023-01-07T07:19:14.461Z,7.58
2023-01-07T07:24:16.599Z,7.96
2023-01-07T07:29:20.542Z,8.23
2023-01-07T07:34:23.988Z,8.29
2023-01-07T07:39:26.070Z,8.46
2023-01-07T07:44:28.117Z,8.51
2023-01-07T07:49:30.439Z,8.76
2023-01-07T07:54:32.624Z,9.08
2023-01-07T07:59:34.799Z,9.00
2023-01-07T08:04:36.987Z,8.95
2023-01-07T08:09:39.456Z,9.16
2023-01-07T08:14:43.772Z,9.50
2023-01-07T08:19:46.191Z,9.48
2023-01-07T08:24:48.324Z,10.10
2023-01-07T08:29:50.516Z,10.01
2023-01-07T08:40:19.095Z,10.76
2023-01-07T08:45:21.220Z,10.77
2023-01-07T08:50:26.946Z,11.06
2023-01-07T08:55:29.134Z,11.16
2023-01-07T09:00:31.434Z,11.13
2023-01-07T09:05:35.288Z,11.31
2023-01-07T09:10:37.559Z,11.84
2023-01-07T09:15:39.808Z,12.10
2023-01-07T09:20:42.014Z,12.22
2023-01-07T09:25:44.592Z,11.65
2023-01-07T09:30:46.997Z,12.33
2023-01-07T09:35:49.231Z,12.10
2023-01-07T09:40:52.208Z,12.44
2023-01-07T09:45:58.027Z,12.80
2023-01-07T09:51:22.833Z,12.91
2023-01-07T09:56:28.398Z,12.68
2023-01-07T10:01:51.791Z,13.01
2023-01-07T10:07:14.786Z,12.99
2023-01-07T10:13:01.945Z,13.29
2023-01-07T10:18:26.914Z,13.31
2023-01-07T10:23:33.237Z,13.57
2023-01-07T10:28:44.980Z,13.76
2023-01-07T10:33:49.279Z,13.79
2023-01-07T10:39:11.561Z,13.94
2023-01-07T10:44:45.655Z,13.99
2023-01-07T10:50:00.720Z,14.45
2023-01-07T10:55:31.308Z,14.35
2023-01-07T11:00:33.778Z,14.57
2023-01-07T11:05:38.409Z,14.71
2023-01-07T11:10:40.903Z,14.86
2023-01-07T11:15:49.657Z,15.10
2023-01-07T11:20:54.079Z,15.12
2023-01-07T11:26:12.480Z,15.24
2023-01-07T11:31:14.725Z,15.24
2023-01-07T11:36:17.357Z,15.40
2023-01-07T11:41:26.039Z,15.53
2023-01-07T11:46:31.845Z,15.80
2023-01-07T11:51:41.278Z,15.95
2023-01-07T11:56:43.473Z,15.91
2023-01-07T12:01:59.278Z,16.04
2023-01-07T12:07:14.343Z,16.10
2023-01-07T12:12:39.615Z,16.13
2023-01-07T12:17:47.336Z,16.19
2023-01-07T12:23:20.654Z,16.55
2023-01-07T12:29:03.959Z,16.56
2023-01-07T12:34:16.453Z,16.64
2023-01-07T12:39:28.744Z,16.57
2023-01-07T12:44:32.132Z,16.73
2023-01-07T12:49:47.889Z,16.95
2023-01-07T12:55:02.121Z,16.82
2023-01-07T13:00:27.050Z,16.88
2023-01-07T13:05:39.618Z,16.83
2023-01-07T13:11:04.546Z,17.01
2023-01-07T13:16:11.194Z,16.63
2023-01-07T13:21:16.376Z,16.83
2023-01-07T13:26:26.462Z,16.56
2023-01-07T13:31:38.012Z,17.12
2023-01-07T13:37:10.937Z,17.34
2023-01-07T13:42:41.674Z,17.39
2023-01-07T13:47:48.627Z,17.28
2023-01-07T13:53:26.074Z,17.42
2023-01-07T13:58:30.986Z,17.66
2023-01-07T14:03:48.608Z,17.67
2023-01-07T14:09:14.047Z,17.62
2023-01-07T14:14:46.121Z,17.90
2023-01-07T14:19:56.841Z,17.89
2023-01-07T14:25:33.961Z,18.07
2023-01-07T14:30:51.020Z,18.43
2023-01-07T14:36:05.844Z,18.42
2023-01-07T14:41:09.930Z,19.00
2023-01-07T14:46:24.321Z,19.19
2023-01-07T14:51:46.825Z,19.49
2023-01-07T14:57:14.853Z,19.93
2023-01-07T15:02:44.837Z,20.04
2023-01-07T15:08:18.083Z,19.42
2023-01-07T15:13:40.372Z,18.54
2023-01-07T15:18:48.271Z,17.88
2023-01-07T15:24:15.149Z,17.47
2023-01-07T15:29:22.741Z,16.94
2023-01-07T15:34:30.098Z,16.55
2023-01-07T15:39:45.556Z,16.30
2023-01-07T15:44:55.307Z,16.08
2023-01-07T15:49:57.435Z,15.72
2023-01-07T15:55:15.545Z,15.35
2023-01-07T16:00:19.986Z,14.69
2023-01-07T16:05:22.336Z,14.67
2023-01-07T16:10:30.066Z,14.17
2023-01-07T16:15:35.356Z,14.25
2023-01-07T16:20:41.352Z,14.03
2023-01-07T16:25:53.805Z,14.04
2023-01-07T16:30:57.573Z,13.99
2023-01-07T16:36:05.093Z,13.39
2023-01-07T16:41:07.819Z,13.42
2023-01-07T16:46:22.005Z,13.44
2023-01-07T16:51:47.029Z,13.07
2023-01-07T16:56:52.914Z,13.05
2023-01-07T17:01:57.114Z,13.08
2023-01-07T17:07:01.750Z,12.58
2023-01-07T17:12:05.224Z,12.71
2023-01-07T17:17:31.997Z,12.99
2023-01-07T17:22:38.735Z,12.47
2023-01-07T17:27:55.482Z,11.96
2023-01-07T17:32:59.043Z,12.02
2023-01-07T17:38:01.288Z,11.89
2023-01-07T17:43:22.123Z,11.74
2023-01-07T17:48:24.443Z,12.02
2023-01-07T17:53:32.131Z,11.68
2023-01-07T17:58:38.426Z,11.58
2023-01-07T18:03:41.684Z,11.59
2023-01-07T18:08:45.262Z,11.61
2023-01-07T18:13:47.515Z,11.56
2023-01-07T18:18:50.018Z,11.72
2023-01-07T18:23:52.404Z,12.06
2023-01-07T18:28:54.792Z,11.38
2023-01-07T18:33:56.950Z,11.34
2023-01-07T18:38:59.179Z,11.12
2023-01-07T18:44:01.661Z,11.04
2023-01-07T18:49:03.898Z,11.12
2023-01-07T18:54:07.493Z,10.69
2023-01-07T18:59:09.873Z,11.05
2023-01-07T19:04:12.250Z,10.91
2023-01-07T19:09:14.512Z,11.01
2023-01-07T19:14:16.646Z,10.89
2023-01-07T19:19:18.930Z,11.18
2023-01-07T19:24:21.677Z,10.73
2023-01-07T19:29:23.935Z,10.59
2023-01-07T19:34:26.385Z,10.47
2023-01-07T19:39:28.783Z,10.37
2023-01-07T19:44:31.066Z,10.96
2023-01-07T19:49:36.296Z,10.45
2023-01-07T19:54:38.580Z,10.57
2023-01-07T19:59:40.734Z,10.03
2023-01-07T20:04:43.396Z,9.93
2023-01-07T20:09:45.686Z,10.05
2023-01-07T20:14:48.157Z,10.24
2023-01-07T20:19:53.145Z,10.37
2023-01-07T20:24:55.432Z,9.80
2023-01-07T20:29:57.645Z,9.40
2023-01-07T20:34:59.912Z,9.37
2023-01-07T20:40:02.263Z,9.67
2023-01-07T20:45:04.775Z,9.47
2023-01-07T20:50:08.779Z,9.65
2023-01-07T20:55:10.995Z,9.12
2023-01-07T21:00:13.994Z,9.45
2023-01-07T21:05:20.572Z,9.41
2023-01-07T21:10:22.915Z,9.81
2023-01-07T21:15:25.214Z,9.73
2023-01-07T21:20:27.677Z,9.45
2023-01-07T21:25:32.375Z,9.77
2023-01-07T21:30:34.713Z,9.71
2023-01-07T21:35:41.821Z,9.33
2023-01-07T21:40:44.579Z,9.31
2023-01-07T21:45:47.050Z,9.36
2023-01-07T21:50:49.372Z,9.01
2023-01-07T21:55:51.615Z,9.01
2023-01-07T22:00:54.168Z,9.11
2023-01-07T22:06:01.528Z,8.94
2023-01-07T22:11:03.741Z,9.21
2023-01-07T22:16:06.465Z,9.08
2023-01-07T22:21:08.730Z,9.23
2023-01-07T22:26:11.130Z,8.91
2023-01-07T22:31:20.313Z,9.08
2023-01-07T22:36:28.352Z,9.15
2023-01-07T22:41:33.543Z,8.38
2023-01-07T22:46:38.840Z,8.39
2023-01-07T22:51:47.111Z,8.38
2023-01-07T22:56:50.351Z,8.07
2023-01-07T23:01:52.546Z,8.15
2023-01-07T23:06:54.746Z,8.45
2023-01-07T23:12:00.934Z,7.82
2023-01-07T23:17:03.450Z,8.20
2023-01-07T23:22:05.637Z,8.05
2023-01-07T23:27:08.022Z,8.03
2023-01-07T23:32:12.883Z,7.76
2023-01-07T23:37:15.077Z,8.55
2023-01-07T23:42:17.217Z,8.13
2023-01-07T23:47:19.354Z,7.84
2023-01-07T23:52:21.543Z,8.14
2023-01-07T23:57:23.721Z,7.82
